Impacts METAR Board
IDs:

KTPA - Tampa Intl Arpt, FL, US

Updated at: 2200 UTC 21 May 2022
Potential Impact None Slight Moderate High
Time 21/10Z 21/11Z 21/12Z 21/13Z 21/14Z 21/15Z 21/16Z 21/17Z 21/18Z 21/19Z 21/20Z 21/21Z 21/22Z
Temp76 75 77 80 82 83 85 86 87 90 90 87 88
Dewpt69 69 69 71 73 74 74 74 75 74 72 76 74
Altim30.12 30.12 30.12 30.13 30.17 30.19 30.19 30.18 30.17 30.13 30.12 30.11 30.12
VIS10 10 10 10 10 10 10 9 9 9 9 8 9
CIG-- 200 11 10 200 16 200 200 200 200 250 250 210
CoverCLRBKNBKNOVCBKNBKNBKNBKNOVCOVCOVCOVCOVC
FltCatVFRVFRMVFRMVFRVFRMVFRVFRVFRVFRVFRVFRVFRVFR
WX--------------------------
WDir07011013014016019012001500280270
WSpd3 3 10 8 6 4 5 6 3 6 3 6 6
WGst-- -- 16 17 -- -- -- -- -- -- -- -- --
Raw hourly METARs
KTPA 210953Z VRB03KT 10SM CLR 24/21 A3012 RMK AO2 SLP198 T02440206
KTPA 211053Z 07003KT 10SM SCT015 BKN200 24/21 A3012 RMK AO2 SLP199 T02390206
KTPA 211153Z 11010G16KT 10SM BKN011 BKN020 25/21 A3012 RMK AO2 SLP198 70017 T02500206 10261 20239 57002
KTPA 211253Z 13008G17KT 10SM BKN010 OVC200 27/22 A3013 RMK AO2 SLP203 T02670217
KTPA 211405Z COR 14006KT 10SM SCT014 BKN200 28/23 A3017 RMK AO2 T02780228
KTPA 211453Z 16004KT 10SM BKN016 BKN200 28/23 A3019 RMK AO2 SLP221 T02830233 53024
KTPA 211553Z 19005KT 10SM SCT018 BKN200 29/23 A3019 RMK AO2 SLP223 T02940233
KTPA 211653Z 12006KT 9SM SCT018 BKN200 30/23 A3018 RMK AO2 SLP220 T03000233
KTPA 211753Z VRB03KT 9SM FEW020 OVC200 31/24 A3017 RMK AO2 SLP215 T03060239 10306 20250 58006
KTPA 211853Z 15006KT 9SM FEW020 OVC200 32/23 A3013 RMK AO2 SLP204 T03220233
KTPA 211953Z VRB03KT 9SM FEW025 OVC250 32/22 A3012 RMK AO2 SLP198 T03220222
KTPA 212053Z 28006KT 8SM SCT043 OVC250 31/24 A3011 RMK AO2 SLP196 T03060244 56019
KTPA 212153Z 27006KT 9SM FEW046 OVC210 31/23 A3012 RMK AO2 SLP199 T03110233



Page loaded:  22:30 UTC  |   03:30 PM Pacific  |   04:30 PM Mountain  |   05:30 PM Central  |   06:30 PM Eastern

 

ADVISORIES

FORECASTS

FORECASTS

OBSERVATIONS

USER TOOLS

ABOUT US